Weather at Granite Shoals Bob Sylvester Airpark

Public forecast

Using degrees Fahrenheit for public forecast. Weather courtesy of forecast.io.

Closest aviation weather report (METAR) to Granite Shoals Bob Sylvester Airpark

Closest report is Horseshoe Bay Resort Airpark, 3.8 nm (7.0 km) S. Retrieved 2022/05/28 06:35 UTC (19 minutes ago):

KDZB 280635Z AUTO 16007KT 10SM CLR 26/15 A2994 RMK AO2 T02560147

Closest aviation forecast (TAF) to Granite Shoals Bob Sylvester Airpark

Forecast is more than 6 hours old.

Closest forecast is Killeen-Fort Hood Regional Airport / Robert Gray Army Air Field, 40.0 nm (74.1 km) NE. Retrieved 2022-05-28 00:43 UTC (6 hours ago):

TAF KGRK 280000Z 2800/2906 12006KT 9999 SKC QNH2990INS BECMG 2815/2816 17012G20KT 9999 SKC QNH2991INS BECMG 2901/2902 18012KT 9999 SKC QNH2977INS TX36/2820Z TN22/2809Z